createdAt,value
2018-12-20T00:01:16.077Z,3.02
2018-12-20T00:03:44.428Z,3.10
2018-12-20T00:06:12.870Z,3.08
2018-12-20T00:08:41.270Z,3.45
2018-12-20T00:11:09.692Z,3.55
2018-12-20T00:13:38.152Z,3.67
2018-12-20T00:16:06.619Z,3.17
2018-12-20T00:18:34.964Z,3.58
2018-12-20T00:21:03.494Z,3.02
2018-12-20T00:23:32.046Z,3.90
2018-12-20T00:26:00.925Z,3.52
2018-12-20T00:28:29.405Z,3.45
2018-12-20T00:30:57.989Z,3.75
2018-12-20T00:33:26.514Z,3.47
2018-12-20T00:35:54.988Z,3.15
2018-12-20T00:38:23.374Z,3.90
2018-12-20T00:40:51.736Z,3.33
2018-12-20T00:43:20.140Z,2.90
2018-12-20T00:45:48.460Z,3.60
2018-12-20T00:48:16.811Z,2.37
2018-12-20T00:50:45.181Z,2.30
2018-12-20T00:53:13.587Z,3.45
2018-12-20T00:55:42.016Z,2.42
2018-12-20T00:58:10.487Z,3.27
2018-12-20T01:00:38.864Z,3.30
2018-12-20T01:03:07.387Z,3.05
2018-12-20T01:05:35.990Z,2.95
2018-12-20T01:08:04.504Z,3.10
2018-12-20T01:10:33.116Z,3.60
2018-12-20T01:13:01.543Z,2.70
2018-12-20T01:15:30.037Z,3.25
2018-12-20T01:17:58.532Z,3.52
2018-12-20T01:20:27.006Z,3.33
2018-12-20T01:22:55.459Z,3.35
2018-12-20T01:25:23.881Z,3.57
2018-12-20T01:27:52.370Z,3.35
2018-12-20T01:30:20.914Z,3.60
2018-12-20T01:32:49.355Z,3.30
2018-12-20T01:35:17.822Z,3.77
2018-12-20T01:37:46.400Z,3.72
2018-12-20T01:40:14.744Z,4.33
2018-12-20T01:42:43.313Z,3.90
2018-12-20T01:45:11.688Z,3.58
2018-12-20T01:47:40.104Z,4.60
2018-12-20T01:50:08.761Z,3.80
2018-12-20T01:52:37.315Z,3.80
2018-12-20T01:55:05.922Z,3.90
2018-12-20T01:57:34.462Z,4.42
2018-12-20T02:00:05.241Z,3.58
2018-12-20T02:02:33.634Z,3.08
2018-12-20T02:05:02.014Z,4.20
2018-12-20T02:07:30.496Z,3.92
2018-12-20T02:09:59.137Z,3.95
2018-12-20T02:12:27.586Z,3.85
2018-12-20T02:15:01.636Z,4.85
2018-12-20T02:17:26.581Z,3.67
2018-12-20T02:19:55.212Z,3.72
2018-12-20T02:22:23.890Z,4.08
2018-12-20T02:24:52.240Z,4.10
2018-12-20T02:27:20.779Z,3.90
2018-12-20T02:29:49.146Z,4.05
2018-12-20T02:32:17.522Z,4.35
2018-12-20T02:34:45.924Z,3.40
2018-12-20T02:37:14.432Z,4.12
2018-12-20T02:39:43.056Z,3.22
2018-12-20T02:42:11.659Z,3.62
2018-12-20T02:44:40.020Z,3.75
2018-12-20T02:47:08.421Z,3.62
2018-12-20T02:49:36.775Z,4.42
2018-12-20T02:52:05.189Z,3.25
2018-12-20T02:54:33.964Z,3.72
2018-12-20T02:57:02.410Z,3.90
2018-12-20T02:59:30.845Z,3.87
2018-12-20T03:01:59.324Z,4.13
2018-12-20T03:04:27.763Z,3.62
2018-12-20T03:06:56.485Z,3.90
2018-12-20T03:09:24.969Z,3.22
2018-12-20T03:11:53.359Z,3.20
2018-12-20T03:14:21.870Z,3.40
2018-12-20T03:16:50.439Z,3.90
2018-12-20T03:19:18.880Z,3.30
2018-12-20T03:21:47.517Z,2.77
2018-12-20T03:24:16.070Z,3.45
2018-12-20T03:26:44.608Z,3.45
2018-12-20T03:29:12.967Z,3.85
2018-12-20T03:31:41.429Z,3.22
2018-12-20T03:34:09.764Z,3.75
2018-12-20T03:36:38.177Z,3.10
2018-12-20T03:39:07.539Z,2.60
2018-12-20T03:41:36.036Z,3.45
2018-12-20T03:44:04.873Z,2.72
2018-12-20T03:46:34.224Z,3.87
2018-12-20T03:49:03.063Z,3.10
2018-12-20T03:51:31.765Z,2.33
2018-12-20T03:54:00.304Z,2.47
2018-12-20T03:56:29.446Z,2.65
2018-12-20T03:58:57.888Z,3.08
2018-12-20T04:01:26.492Z,2.85
2018-12-20T04:03:54.879Z,3.27
2018-12-20T04:06:23.359Z,2.83
2018-12-20T04:08:51.873Z,3.30
2018-12-20T04:11:20.370Z,2.80
2018-12-20T04:13:48.791Z,2.30
2018-12-20T04:16:17.416Z,2.43
2018-12-20T04:18:46.114Z,2.70
2018-12-20T04:21:14.577Z,2.43
2018-12-20T04:23:43.429Z,3.07
2018-12-20T04:26:11.885Z,2.43
2018-12-20T04:28:40.288Z,2.80
2018-12-20T04:31:08.617Z,2.52
2018-12-20T04:33:36.996Z,2.58
2018-12-20T04:36:05.599Z,2.10
2018-12-20T04:38:34.147Z,2.67
2018-12-20T04:41:02.701Z,2.75
2018-12-20T04:43:31.179Z,2.12
2018-12-20T04:45:59.581Z,2.27
2018-12-20T04:48:28.267Z,2.75
2018-12-20T04:50:56.717Z,2.60
2018-12-20T04:53:25.356Z,2.30
2018-12-20T04:55:54.002Z,2.37
2018-12-20T04:58:22.392Z,2.62
2018-12-20T05:00:50.732Z,2.33
2018-12-20T05:03:19.337Z,1.85
2018-12-20T05:05:47.699Z,2.17
2018-12-20T05:08:16.223Z,2.08
2018-12-20T05:10:45.377Z,2.20
2018-12-20T05:13:13.808Z,2.42
2018-12-20T05:15:42.298Z,3.08
2018-12-20T05:18:10.763Z,2.42
2018-12-20T05:20:39.195Z,2.50
2018-12-20T05:23:07.631Z,1.90
2018-12-20T05:25:35.962Z,2.22
2018-12-20T05:28:04.287Z,2.40
2018-12-20T05:30:32.697Z,2.30
2018-12-20T05:33:01.092Z,2.52
2018-12-20T05:35:29.452Z,2.47
2018-12-20T05:37:58.033Z,3.02
2018-12-20T05:40:26.595Z,3.02
2018-12-20T05:42:55.074Z,2.37
2018-12-20T05:45:23.522Z,2.25
2018-12-20T05:47:52.002Z,2.25
2018-12-20T05:50:20.471Z,2.80
2018-12-20T05:52:48.835Z,2.35
2018-12-20T05:55:17.627Z,3.27
2018-12-20T05:57:46.892Z,2.92
2018-12-20T06:00:15.451Z,2.22
2018-12-20T06:02:44.126Z,2.25
2018-12-20T06:05:12.533Z,2.65
2018-12-20T06:07:41.001Z,3.85
2018-12-20T06:10:09.499Z,5.30
2018-12-20T06:12:37.911Z,3.50
2018-12-20T06:15:07.345Z,3.15
2018-12-20T06:17:35.996Z,3.42
2018-12-20T06:20:05.620Z,2.72
2018-12-20T06:22:33.988Z,2.80
2018-12-20T06:25:02.344Z,2.80
2018-12-20T06:27:30.747Z,2.10
2018-12-20T06:29:59.092Z,2.20
2018-12-20T06:32:27.461Z,1.85
2018-12-20T06:34:55.787Z,2.10
2018-12-20T06:37:24.152Z,1.35
2018-12-20T06:39:52.497Z,1.22
2018-12-20T06:42:20.829Z,1.20
2018-12-20T06:44:49.149Z,1.55
2018-12-20T06:47:17.582Z,1.40
2018-12-20T06:49:45.927Z,1.32
2018-12-20T06:52:14.457Z,1.62
2018-12-20T06:54:42.808Z,1.50
2018-12-20T06:57:11.252Z,1.00
2018-12-20T06:59:39.592Z,1.40
2018-12-20T07:02:07.949Z,1.15
2018-12-20T07:04:36.284Z,1.25
2018-12-20T07:07:04.730Z,1.50
2018-12-20T07:09:33.123Z,1.30
2018-12-20T07:12:01.467Z,1.40
2018-12-20T07:14:29.807Z,1.50
2018-12-20T07:16:58.138Z,1.57
2018-12-20T07:19:27.312Z,1.40
2018-12-20T07:21:55.687Z,1.52
2018-12-20T07:24:24.031Z,1.72
2018-12-20T07:26:52.382Z,1.12
2018-12-20T07:29:20.786Z,0.95
2018-12-20T07:31:49.162Z,1.37
2018-12-20T07:34:17.496Z,1.70
2018-12-20T07:36:45.828Z,1.17
2018-12-20T07:39:14.175Z,1.15
2018-12-20T07:41:42.541Z,1.40
2018-12-20T07:44:11.023Z,1.30
2018-12-20T07:46:39.445Z,1.07
2018-12-20T07:49:07.926Z,1.00
2018-12-20T07:51:36.264Z,1.17
2018-12-20T07:54:04.743Z,2.30
2018-12-20T07:56:33.088Z,1.20
2018-12-20T07:59:01.413Z,1.32
2018-12-20T08:01:29.768Z,1.15
2018-12-20T08:03:58.117Z,0.80
2018-12-20T08:06:26.463Z,1.02
2018-12-20T08:08:54.804Z,1.37
2018-12-20T08:11:23.181Z,1.35
2018-12-20T08:13:51.507Z,1.20
2018-12-20T08:16:19.901Z,1.50
2018-12-20T08:18:48.442Z,1.30
2018-12-20T08:21:16.923Z,1.12
2018-12-20T08:23:45.257Z,1.02
2018-12-20T08:26:13.602Z,2.00
2018-12-20T08:28:41.932Z,2.00
2018-12-20T08:31:10.315Z,1.72
2018-12-20T08:33:38.676Z,1.50
2018-12-20T08:36:07.023Z,1.90
2018-12-20T08:38:35.349Z,1.47
2018-12-20T08:41:03.724Z,1.20
2018-12-20T08:43:32.085Z,1.23
2018-12-20T08:46:00.413Z,1.20
2018-12-20T08:48:29.084Z,1.60
2018-12-20T08:50:57.406Z,1.40
2018-12-20T08:53:25.731Z,1.60
2018-12-20T08:55:54.062Z,1.30
2018-12-20T08:58:22.427Z,1.60
2018-12-20T09:00:50.743Z,1.30
2018-12-20T09:03:19.150Z,1.90
2018-12-20T09:05:47.474Z,1.33
2018-12-20T09:08:15.812Z,1.50
2018-12-20T09:10:44.155Z,1.67
2018-12-20T09:13:12.502Z,1.90
2018-12-20T09:15:40.894Z,1.20
2018-12-20T09:18:09.311Z,1.80
2018-12-20T09:20:37.627Z,1.40
2018-12-20T09:23:06.380Z,1.47
2018-12-20T09:25:34.710Z,1.50
2018-12-20T09:28:03.101Z,2.10
2018-12-20T09:30:31.452Z,1.40
2018-12-20T09:32:59.824Z,1.37
2018-12-20T09:35:28.182Z,1.40
2018-12-20T09:37:56.501Z,1.80
2018-12-20T09:40:24.915Z,1.37
2018-12-20T09:42:53.280Z,1.47
2018-12-20T09:45:21.603Z,1.30
2018-12-20T09:47:53.584Z,1.03
2018-12-20T09:50:21.939Z,1.40
2018-12-20T09:52:50.270Z,0.93
2018-12-20T09:55:18.604Z,1.10
2018-12-20T09:57:46.953Z,1.40
2018-12-20T10:00:15.428Z,1.25
2018-12-20T10:02:43.843Z,1.43
2018-12-20T10:05:12.357Z,1.10
2018-12-20T10:07:40.761Z,1.10
2018-12-20T10:10:09.481Z,1.17
2018-12-20T10:12:37.849Z,1.60
2018-12-20T10:15:07.368Z,1.20
2018-12-20T10:17:35.702Z,1.20
2018-12-20T10:20:05.415Z,1.53
2018-12-20T10:22:34.069Z,1.17
2018-12-20T10:25:02.400Z,1.10
2018-12-20T10:27:31.535Z,1.00
2018-12-20T10:30:00.279Z,0.90
2018-12-20T10:32:28.621Z,2.03
2018-12-20T10:34:57.073Z,1.00
2018-12-20T10:37:25.432Z,1.60
2018-12-20T10:39:53.765Z,1.33
2018-12-20T10:42:22.070Z,1.00
2018-12-20T10:44:50.390Z,0.97
2018-12-20T10:47:28.765Z,0.90
2018-12-20T10:49:55.123Z,1.20
2018-12-20T10:52:23.469Z,0.90
2018-12-20T10:54:51.826Z,1.20
2018-12-20T10:57:21.404Z,1.60
2018-12-20T10:59:49.946Z,0.90
2018-12-20T11:02:23.852Z,1.30
2018-12-20T11:04:59.496Z,1.00
2018-12-20T11:07:33.303Z,1.00
2018-12-20T11:10:07.331Z,1.00
2018-12-20T11:12:41.083Z,1.30
2018-12-20T11:15:09.551Z,1.20
2018-12-20T11:17:37.943Z,1.57
2018-12-20T11:20:07.092Z,0.90
2018-12-20T11:22:35.824Z,0.90
2018-12-20T11:25:05.582Z,1.30
2018-12-20T11:27:33.947Z,2.20
2018-12-20T11:30:02.273Z,1.47
2018-12-20T11:32:30.649Z,1.90
2018-12-20T11:34:59.020Z,1.23
2018-12-20T11:37:27.459Z,1.10
2018-12-20T11:39:59.817Z,2.30
2018-12-20T11:42:26.172Z,1.13
2018-12-20T11:44:54.511Z,1.37
2018-12-20T11:47:28.112Z,1.17
2018-12-20T11:49:56.440Z,1.00
2018-12-20T11:52:25.785Z,0.87
2018-12-20T11:57:28.919Z,0.70
2018-12-20T11:59:57.246Z,1.00
2018-12-20T12:02:25.596Z,0.97
2018-12-20T12:04:53.975Z,1.00
2018-12-20T12:07:22.332Z,0.90
2018-12-20T12:09:50.732Z,0.87
2018-12-20T12:12:19.087Z,0.83
2018-12-20T12:14:47.441Z,0.80
2018-12-20T12:17:15.765Z,0.90
2018-12-20T12:19:44.098Z,0.77
2018-12-20T12:22:12.420Z,0.83
2018-12-20T12:24:40.755Z,0.80
2018-12-20T12:27:09.172Z,0.80
2018-12-20T12:29:37.514Z,0.83
2018-12-20T12:32:05.885Z,0.90
2018-12-20T12:34:34.206Z,1.23
2018-12-20T12:37:02.555Z,1.20
2018-12-20T12:39:30.891Z,1.30
2018-12-20T12:41:59.298Z,1.40
2018-12-20T12:44:27.647Z,1.00
2018-12-20T12:46:55.991Z,1.17
2018-12-20T12:49:24.443Z,1.57
2018-12-20T12:51:53.475Z,1.20
2018-12-20T12:54:22.475Z,1.03
2018-12-20T12:56:50.849Z,1.10
2018-12-20T12:59:19.191Z,0.90
2018-12-20T13:01:47.647Z,0.80
2018-12-20T13:04:16.102Z,1.00
2018-12-20T13:06:44.451Z,0.90
2018-12-20T13:09:12.828Z,0.90
2018-12-20T13:11:41.304Z,1.17
2018-12-20T13:14:09.694Z,1.17
2018-12-20T13:16:38.153Z,1.10
2018-12-20T13:19:06.518Z,0.93
2018-12-20T13:21:34.891Z,1.17
2018-12-20T13:24:03.624Z,0.90
2018-12-20T13:26:31.953Z,0.80
2018-12-20T13:29:00.494Z,1.00
2018-12-20T13:31:28.899Z,1.13
2018-12-20T13:33:57.245Z,0.80
2018-12-20T13:36:25.705Z,0.80
2018-12-20T13:38:54.045Z,1.27
2018-12-20T13:41:22.384Z,0.83
2018-12-20T13:43:50.854Z,1.20
2018-12-20T13:46:19.206Z,0.90
2018-12-20T13:48:47.667Z,1.33
2018-12-20T13:51:16.035Z,1.23
2018-12-20T13:53:44.448Z,1.10
2018-12-20T13:56:12.788Z,0.70
2018-12-20T13:58:41.138Z,1.10
2018-12-20T14:01:09.590Z,1.47
2018-12-20T14:03:38.064Z,1.00
2018-12-20T14:06:06.484Z,1.20
2018-12-20T14:08:35.062Z,1.30
2018-12-20T14:11:03.454Z,1.23
2018-12-20T14:13:31.811Z,1.13
2018-12-20T14:16:01.203Z,1.30
2018-12-20T14:18:31.180Z,1.23
2018-12-20T14:20:59.802Z,1.57
2018-12-20T14:23:28.162Z,1.40
2018-12-20T14:25:56.522Z,1.33
2018-12-20T14:28:24.955Z,1.97
2018-12-20T14:30:53.450Z,1.63
2018-12-20T14:33:22.456Z,1.90
2018-12-20T14:35:50.881Z,1.87
2018-12-20T14:38:19.292Z,1.90
2018-12-20T14:40:47.682Z,1.87
2018-12-20T14:43:16.039Z,1.65
2018-12-20T14:45:44.373Z,1.72
2018-12-20T14:48:14.763Z,1.40
2018-12-20T14:50:43.153Z,1.37
2018-12-20T14:53:11.633Z,1.80
2018-12-20T14:55:40.040Z,1.60
2018-12-20T14:58:08.401Z,1.37
2018-12-20T15:00:38.186Z,1.70
2018-12-20T15:03:06.526Z,1.40
2018-12-20T15:05:34.921Z,1.83
2018-12-20T15:08:03.271Z,2.40
2018-12-20T15:10:31.812Z,1.50
2018-12-20T15:13:00.252Z,1.70
2018-12-20T15:15:28.710Z,1.75
2018-12-20T15:17:57.275Z,1.50
2018-12-20T15:20:25.631Z,1.60
2018-12-20T15:22:54.478Z,1.40
2018-12-20T15:25:22.844Z,1.93
2018-12-20T15:27:51.222Z,1.47
2018-12-20T15:30:20.494Z,1.32
2018-12-20T15:32:48.875Z,1.35
2018-12-20T15:35:17.223Z,1.10
2018-12-20T15:37:45.918Z,1.73
2018-12-20T15:40:14.331Z,1.70
2018-12-20T15:42:42.891Z,1.37
2018-12-20T15:45:11.226Z,1.57
2018-12-20T15:47:39.556Z,1.57
2018-12-20T15:50:08.495Z,1.70
2018-12-20T15:52:36.856Z,1.62
2018-12-20T15:55:06.083Z,1.20
2018-12-20T15:57:35.449Z,1.53
2018-12-20T16:00:06.092Z,1.40
2018-12-20T16:02:35.500Z,1.10
2018-12-20T16:05:04.651Z,1.77
2018-12-20T16:07:32.993Z,1.10
2018-12-20T16:10:01.450Z,1.27
2018-12-20T16:12:30.036Z,1.12
2018-12-20T16:14:58.411Z,2.00
2018-12-20T16:17:26.802Z,1.77
2018-12-20T16:19:55.186Z,1.27
2018-12-20T16:22:23.555Z,1.70
2018-12-20T16:24:53.171Z,1.70
2018-12-20T16:27:21.515Z,1.45
2018-12-20T16:29:49.877Z,1.90
2018-12-20T16:32:21.534Z,1.17
2018-12-20T16:34:50.206Z,1.70
2018-12-20T16:37:18.583Z,1.23
2018-12-20T16:39:46.936Z,1.50
2018-12-20T16:42:15.299Z,1.40
2018-12-20T16:44:43.694Z,1.32
2018-12-20T16:47:12.079Z,0.90
2018-12-20T16:49:40.595Z,1.60
2018-12-20T16:52:08.989Z,1.30
2018-12-20T16:54:38.221Z,1.20
2018-12-20T16:57:06.654Z,1.30
2018-12-20T16:59:36.054Z,1.17
2018-12-20T17:02:04.410Z,2.02
2018-12-20T17:04:32.826Z,1.50
2018-12-20T17:07:01.185Z,1.55
2018-12-20T17:09:31.852Z,1.17
2018-12-20T17:12:00.279Z,1.73
2018-12-20T17:14:28.799Z,1.30
2018-12-20T17:16:57.911Z,1.00
2018-12-20T17:19:26.347Z,2.33
2018-12-20T17:21:54.908Z,1.95
2018-12-20T17:24:23.275Z,1.30
2018-12-20T17:26:51.831Z,1.50
2018-12-20T17:29:20.256Z,1.80
2018-12-20T17:31:48.697Z,2.02
2018-12-20T17:34:17.051Z,1.80
2018-12-20T17:36:45.430Z,1.85
2018-12-20T17:39:14.066Z,2.00
2018-12-20T17:41:44.279Z,2.37
2018-12-20T17:44:12.642Z,1.60
2018-12-20T17:46:40.988Z,1.55
2018-12-20T17:49:09.422Z,2.08
2018-12-20T17:51:37.807Z,2.00
2018-12-20T17:54:06.142Z,2.40
2018-12-20T17:56:36.719Z,1.82
2018-12-20T17:59:05.803Z,2.42
2018-12-20T18:01:34.151Z,2.98
2018-12-20T18:04:02.534Z,2.85
2018-12-20T18:06:30.978Z,2.22
2018-12-20T18:08:59.383Z,2.52
2018-12-20T18:11:28.036Z,1.75
2018-12-20T18:13:56.384Z,2.33
2018-12-20T18:16:24.794Z,2.27
2018-12-20T18:18:53.165Z,2.10
2018-12-20T18:21:21.572Z,1.72
2018-12-20T18:23:50.397Z,2.50
2018-12-20T18:26:18.924Z,2.40
2018-12-20T18:28:47.510Z,2.40
2018-12-20T18:31:16.098Z,2.50
2018-12-20T18:33:44.504Z,2.60
2018-12-20T18:36:14.343Z,2.10
2018-12-20T18:38:42.701Z,2.03
2018-12-20T18:41:11.068Z,2.40
2018-12-20T18:43:39.457Z,2.37
2018-12-20T18:46:08.350Z,2.42
2018-12-20T18:48:36.785Z,1.93
2018-12-20T18:51:05.428Z,1.50
2018-12-20T18:53:33.828Z,1.72
2018-12-20T18:56:02.165Z,1.70
2018-12-20T18:58:30.631Z,2.20
2018-12-20T19:00:59.902Z,2.08
2018-12-20T19:03:30.229Z,1.90
2018-12-20T19:06:01.505Z,2.87
2018-12-20T19:08:30.499Z,1.90
2018-12-20T19:11:00.858Z,1.70
2018-12-20T19:13:32.884Z,1.95
2018-12-20T19:16:02.998Z,2.45
2018-12-20T19:18:31.395Z,1.80
2018-12-20T19:21:01.302Z,1.90
2018-12-20T19:23:31.250Z,2.25
2018-12-20T19:26:01.056Z,2.35
2018-12-20T19:28:36.316Z,2.02
2018-12-20T19:31:04.710Z,1.95
2018-12-20T19:33:33.047Z,1.50
2018-12-20T19:36:01.630Z,2.42
2018-12-20T19:38:30.229Z,1.70
2018-12-20T19:40:59.547Z,2.00
2018-12-20T19:43:28.003Z,1.75
2018-12-20T19:45:56.553Z,2.00
2018-12-20T19:48:24.933Z,2.50
2018-12-20T19:50:53.308Z,2.75
2018-12-20T19:53:21.949Z,2.00
2018-12-20T19:55:50.724Z,1.90
2018-12-20T19:58:19.348Z,2.75
2018-12-20T20:00:47.733Z,2.77
2018-12-20T20:03:16.101Z,2.17
2018-12-20T20:05:44.531Z,1.75
2018-12-20T20:08:13.075Z,2.00
2018-12-20T20:10:43.285Z,2.27
2018-12-20T20:13:19.000Z,2.05
2018-12-20T20:15:42.017Z,2.83
2018-12-20T20:18:10.490Z,2.87
2018-12-20T20:20:40.954Z,3.50
2018-12-20T20:23:10.291Z,2.50
2018-12-20T20:25:39.368Z,3.35
2018-12-20T20:28:08.036Z,3.63
2018-12-20T20:30:36.530Z,2.55
2018-12-20T20:33:05.956Z,2.47
2018-12-20T20:35:37.134Z,2.25
2018-12-20T20:38:06.570Z,2.50
2018-12-20T20:40:35.231Z,2.12
2018-12-20T20:43:03.640Z,2.10
2018-12-20T20:45:33.281Z,2.65
2018-12-20T20:48:02.005Z,2.00
2018-12-20T20:50:31.302Z,2.00
2018-12-20T20:52:59.761Z,2.75
2018-12-20T20:55:28.275Z,1.23
2018-12-20T20:57:59.817Z,2.30
2018-12-20T21:00:28.221Z,3.37
2018-12-20T21:02:56.662Z,2.02
2018-12-20T21:05:25.315Z,1.77
2018-12-20T21:07:53.695Z,1.82
2018-12-20T21:10:22.194Z,2.10
2018-12-20T21:12:50.755Z,2.25
2018-12-20T21:15:19.163Z,2.55
2018-12-20T21:17:47.513Z,2.08
2018-12-20T21:20:16.768Z,2.30
2018-12-20T21:22:45.140Z,2.15
2018-12-20T21:25:13.514Z,2.35
2018-12-20T21:27:42.351Z,2.45
2018-12-20T21:30:11.129Z,2.20
2018-12-20T21:32:39.580Z,2.58
2018-12-20T21:35:08.076Z,2.60
2018-12-20T21:37:36.551Z,2.10
2018-12-20T21:40:06.242Z,1.85
2018-12-20T21:42:34.759Z,2.20
2018-12-20T21:45:03.204Z,1.90
2018-12-20T21:47:31.844Z,1.40
2018-12-20T21:50:00.261Z,1.98
2018-12-20T21:52:28.608Z,2.40
2018-12-20T21:54:56.952Z,1.75
2018-12-20T21:57:25.329Z,2.20
2018-12-20T22:00:01.017Z,1.70
2018-12-20T22:02:24.083Z,2.12
2018-12-20T22:04:52.453Z,1.60
2018-12-20T22:07:20.945Z,1.30
2018-12-20T22:09:49.294Z,1.75
2018-12-20T22:12:17.664Z,1.90
2018-12-20T22:14:46.013Z,1.67
2018-12-20T22:17:14.429Z,1.50
2018-12-20T22:19:42.856Z,1.60
2018-12-20T22:22:11.254Z,1.30
2018-12-20T22:24:39.603Z,1.95
2018-12-20T22:27:08.008Z,1.62
2018-12-20T22:29:36.378Z,1.50
2018-12-20T22:32:04.725Z,1.80
2018-12-20T22:34:33.156Z,2.37
2018-12-20T22:37:01.645Z,2.08
2018-12-20T22:39:29.989Z,1.80
2018-12-20T22:41:58.653Z,1.83
2018-12-20T22:44:26.984Z,1.80
2018-12-20T22:46:55.336Z,1.87
2018-12-20T22:49:23.702Z,2.00
2018-12-20T22:51:52.043Z,1.70
2018-12-20T22:54:20.546Z,1.20
2018-12-20T22:56:48.903Z,1.90
2018-12-20T22:59:17.236Z,1.50
2018-12-20T23:01:45.635Z,1.20
2018-12-20T23:04:13.963Z,1.90
2018-12-20T23:06:42.504Z,1.53
2018-12-20T23:09:10.846Z,1.43
2018-12-20T23:11:39.183Z,2.15
2018-12-20T23:14:07.532Z,1.87
2018-12-20T23:16:35.847Z,1.17
2018-12-20T23:19:04.293Z,1.83
2018-12-20T23:21:32.648Z,1.57
2018-12-20T23:24:00.978Z,1.60
2018-12-20T23:26:29.348Z,1.10
2018-12-20T23:28:57.666Z,1.55
2018-12-20T23:31:26.018Z,1.33
2018-12-20T23:33:54.372Z,1.23
2018-12-20T23:36:22.893Z,1.43
2018-12-20T23:38:51.326Z,0.83
2018-12-20T23:41:19.703Z,0.93
2018-12-20T23:43:48.069Z,1.43
2018-12-20T23:46:16.423Z,1.40
2018-12-20T23:48:44.763Z,1.20
2018-12-20T23:51:13.938Z,1.40
2018-12-20T23:53:42.482Z,1.40
2018-12-20T23:56:10.911Z,1.57
2018-12-20T23:58:39.252Z,2.00
